sensor_id;sensor_type;location;lat;lon;timestamp;P1;durP1;ratioP1;P2;durP2;ratioP2
59938;SDS011;45801;51.810;19.444;2023-11-22T00:01:36;20.50;;;14.30;;
59938;SDS011;45801;51.810;19.444;2023-11-22T00:04:03;20.80;;;14.60;;
59938;SDS011;45801;51.810;19.444;2023-11-22T00:06:30;17.40;;;10.80;;
59938;SDS011;45801;51.810;19.444;2023-11-22T00:08:56;20.40;;;11.80;;
59938;SDS011;45801;51.810;19.444;2023-11-22T00:11:23;22.60;;;14.40;;
59938;SDS011;45801;51.810;19.444;2023-11-22T00:13:51;15.70;;;9.40;;
59938;SDS011;45801;51.810;19.444;2023-11-22T00:16:22;13.80;;;7.90;;
59938;SDS011;45801;51.810;19.444;2023-11-22T00:18:49;13.90;;;7.40;;
59938;SDS011;45801;51.810;19.444;2023-11-22T00:21:16;15.40;;;7.30;;
59938;SDS011;45801;51.810;19.444;2023-11-22T00:23:42;14.90;;;8.50;;
59938;SDS011;45801;51.810;19.444;2023-11-22T00:26:09;14.10;;;8.50;;
59938;SDS011;45801;51.810;19.444;2023-11-22T00:28:37;12.90;;;7.80;;
59938;SDS011;45801;51.810;19.444;2023-11-22T00:31:04;11.30;;;6.90;;
59938;SDS011;45801;51.810;19.444;2023-11-22T00:33:30;11.70;;;6.40;;
59938;SDS011;45801;51.810;19.444;2023-11-22T00:35:57;12.60;;;6.40;;
59938;SDS011;45801;51.810;19.444;2023-11-22T00:38:25;11.20;;;6.20;;
59938;SDS011;45801;51.810;19.444;2023-11-22T00:40:51;11.80;;;6.00;;
59938;SDS011;45801;51.810;19.444;2023-11-22T00:43:18;13.20;;;7.00;;
59938;SDS011;45801;51.810;19.444;2023-11-22T00:45:45;11.30;;;5.30;;
59938;SDS011;45801;51.810;19.444;2023-11-22T00:48:12;11.40;;;6.00;;
59938;SDS011;45801;51.810;19.444;2023-11-22T00:50:38;11.80;;;6.80;;
59938;SDS011;45801;51.810;19.444;2023-11-22T00:53:07;11.20;;;5.70;;
59938;SDS011;45801;51.810;19.444;2023-11-22T00:55:33;13.30;;;5.80;;
59938;SDS011;45801;51.810;19.444;2023-11-22T00:58:01;13.60;;;6.00;;
59938;SDS011;45801;51.810;19.444;2023-11-22T01:00:31;10.90;;;5.40;;
59938;SDS011;45801;51.810;19.444;2023-11-22T01:02:57;10.90;;;5.30;;
59938;SDS011;45801;51.810;19.444;2023-11-22T01:05:24;10.60;;;5.70;;
59938;SDS011;45801;51.810;19.444;2023-11-22T01:07:51;12.70;;;6.00;;
59938;SDS011;45801;51.810;19.444;2023-11-22T01:10:17;10.40;;;5.10;;
59938;SDS011;45801;51.810;19.444;2023-11-22T01:12:44;9.90;;;5.30;;
59938;SDS011;45801;51.810;19.444;2023-11-22T01:15:10;12.20;;;4.80;;
59938;SDS011;45801;51.810;19.444;2023-11-22T01:17:37;11.60;;;5.90;;
59938;SDS011;45801;51.810;19.444;2023-11-22T01:20:04;10.30;;;6.40;;
59938;SDS011;45801;51.810;19.444;2023-11-22T01:22:32;12.40;;;6.50;;
59938;SDS011;45801;51.810;19.444;2023-11-22T01:24:58;14.40;;;7.00;;
59938;SDS011;45801;51.810;19.444;2023-11-22T01:27:25;13.20;;;6.70;;
59938;SDS011;45801;51.810;19.444;2023-11-22T01:29:52;11.10;;;6.00;;
59938;SDS011;45801;51.810;19.444;2023-11-22T01:32:23;10.20;;;5.90;;
59938;SDS011;45801;51.810;19.444;2023-11-22T01:34:50;11.70;;;6.30;;
59938;SDS011;45801;51.810;19.444;2023-11-22T01:37:17;13.00;;;6.60;;
59938;SDS011;45801;51.810;19.444;2023-11-22T01:39:44;11.00;;;5.50;;
59938;SDS011;45801;51.810;19.444;2023-11-22T01:42:11;12.70;;;6.80;;
59938;SDS011;45801;51.810;19.444;2023-11-22T01:44:37;12.40;;;6.00;;
59938;SDS011;45801;51.810;19.444;2023-11-22T01:47:04;10.40;;;5.40;;
59938;SDS011;45801;51.810;19.444;2023-11-22T01:49:31;11.10;;;5.70;;
59938;SDS011;45801;51.810;19.444;2023-11-22T01:51:58;12.70;;;6.80;;
59938;SDS011;45801;51.810;19.444;2023-11-22T01:54:24;10.60;;;5.70;;
59938;SDS011;45801;51.810;19.444;2023-11-22T01:56:51;11.50;;;6.00;;
59938;SDS011;45801;51.810;19.444;2023-11-22T01:59:19;10.70;;;6.00;;
59938;SDS011;45801;51.810;19.444;2023-11-22T02:01:46;11.20;;;5.70;;
59938;SDS011;45801;51.810;19.444;2023-11-22T02:04:15;9.80;;;4.90;;
59938;SDS011;45801;51.810;19.444;2023-11-22T02:06:42;12.20;;;5.40;;
59938;SDS011;45801;51.810;19.444;2023-11-22T02:09:08;12.20;;;5.80;;
59938;SDS011;45801;51.810;19.444;2023-11-22T02:11:39;11.20;;;5.10;;
59938;SDS011;45801;51.810;19.444;2023-11-22T02:14:07;10.50;;;5.30;;
59938;SDS011;45801;51.810;19.444;2023-11-22T02:16:35;9.80;;;5.40;;
59938;SDS011;45801;51.810;19.444;2023-11-22T02:19:04;10.10;;;4.90;;
59938;SDS011;45801;51.810;19.444;2023-11-22T02:21:33;9.90;;;4.70;;
59938;SDS011;45801;51.810;19.444;2023-11-22T02:24:00;10.40;;;5.60;;
59938;SDS011;45801;51.810;19.444;2023-11-22T02:26:26;11.10;;;5.00;;
59938;SDS011;45801;51.810;19.444;2023-11-22T02:28:53;11.00;;;5.60;;
59938;SDS011;45801;51.810;19.444;2023-11-22T02:31:20;10.60;;;4.80;;
59938;SDS011;45801;51.810;19.444;2023-11-22T02:33:46;12.40;;;5.60;;
59938;SDS011;45801;51.810;19.444;2023-11-22T02:36:13;10.20;;;5.10;;
59938;SDS011;45801;51.810;19.444;2023-11-22T02:38:39;10.90;;;5.60;;
59938;SDS011;45801;51.810;19.444;2023-11-22T02:41:07;10.40;;;5.50;;
59938;SDS011;45801;51.810;19.444;2023-11-22T02:43:35;11.00;;;5.20;;
59938;SDS011;45801;51.810;19.444;2023-11-22T02:46:03;10.60;;;5.50;;
59938;SDS011;45801;51.810;19.444;2023-11-22T02:48:30;10.60;;;5.20;;
59938;SDS011;45801;51.810;19.444;2023-11-22T02:50:57;10.60;;;5.10;;
59938;SDS011;45801;51.810;19.444;2023-11-22T02:53:24;10.80;;;5.00;;
59938;SDS011;45801;51.810;19.444;2023-11-22T02:55:50;9.90;;;4.20;;
59938;SDS011;45801;51.810;19.444;2023-11-22T02:58:18;11.20;;;4.60;;
59938;SDS011;45801;51.810;19.444;2023-11-22T03:00:44;8.60;;;4.30;;
59938;SDS011;45801;51.810;19.444;2023-11-22T03:03:11;8.70;;;4.10;;
59938;SDS011;45801;51.810;19.444;2023-11-22T03:05:39;9.70;;;4.80;;
59938;SDS011;45801;51.810;19.444;2023-11-22T03:08:08;10.40;;;4.30;;
59938;SDS011;45801;51.810;19.444;2023-11-22T03:10:36;10.60;;;5.20;;
59938;SDS011;45801;51.810;19.444;2023-11-22T03:13:02;8.80;;;4.10;;
59938;SDS011;45801;51.810;19.444;2023-11-22T03:15:30;8.20;;;3.90;;
59938;SDS011;45801;51.810;19.444;2023-11-22T03:17:58;8.80;;;4.40;;
59938;SDS011;45801;51.810;19.444;2023-11-22T03:20:25;8.70;;;4.30;;
59938;SDS011;45801;51.810;19.444;2023-11-22T03:22:52;8.30;;;4.20;;
59938;SDS011;45801;51.810;19.444;2023-11-22T03:25:19;8.90;;;4.40;;
59938;SDS011;45801;51.810;19.444;2023-11-22T03:27:46;11.00;;;4.10;;
59938;SDS011;45801;51.810;19.444;2023-11-22T03:30:13;8.40;;;3.90;;
59938;SDS011;45801;51.810;19.444;2023-11-22T03:32:41;9.00;;;4.50;;
59938;SDS011;45801;51.810;19.444;2023-11-22T03:35:10;10.50;;;4.60;;
59938;SDS011;45801;51.810;19.444;2023-11-22T03:37:37;8.50;;;3.90;;
59938;SDS011;45801;51.810;19.444;2023-11-22T03:40:04;11.00;;;5.20;;
59938;SDS011;45801;51.810;19.444;2023-11-22T03:42:31;8.90;;;4.40;;
59938;SDS011;45801;51.810;19.444;2023-11-22T03:44:57;8.00;;;3.80;;
59938;SDS011;45801;51.810;19.444;2023-11-22T03:47:25;8.50;;;3.50;;
59938;SDS011;45801;51.810;19.444;2023-11-22T03:49:52;8.90;;;3.70;;
59938;SDS011;45801;51.810;19.444;2023-11-22T03:52:19;9.40;;;4.30;;
59938;SDS011;45801;51.810;19.444;2023-11-22T03:54:45;10.00;;;5.30;;
59938;SDS011;45801;51.810;19.444;2023-11-22T03:57:12;9.80;;;4.70;;
59938;SDS011;45801;51.810;19.444;2023-11-22T03:59:40;9.00;;;4.10;;
59938;SDS011;45801;51.810;19.444;2023-11-22T04:02:09;11.50;;;6.80;;
59938;SDS011;45801;51.810;19.444;2023-11-22T04:04:36;10.40;;;5.50;;
59938;SDS011;45801;51.810;19.444;2023-11-22T04:07:06;9.80;;;4.80;;
59938;SDS011;45801;51.810;19.444;2023-11-22T04:09:33;9.90;;;4.70;;
59938;SDS011;45801;51.810;19.444;2023-11-22T04:12:00;9.10;;;4.60;;
59938;SDS011;45801;51.810;19.444;2023-11-22T04:14:27;11.40;;;4.80;;
59938;SDS011;45801;51.810;19.444;2023-11-22T04:16:53;10.40;;;5.10;;
59938;SDS011;45801;51.810;19.444;2023-11-22T04:19:20;10.30;;;5.20;;
59938;SDS011;45801;51.810;19.444;2023-11-22T04:21:47;10.00;;;4.20;;
59938;SDS011;45801;51.810;19.444;2023-11-22T04:24:13;10.60;;;4.80;;
59938;SDS011;45801;51.810;19.444;2023-11-22T04:26:40;8.90;;;3.90;;
59938;SDS011;45801;51.810;19.444;2023-11-22T04:29:07;9.70;;;4.10;;
59938;SDS011;45801;51.810;19.444;2023-11-22T04:31:34;9.60;;;4.30;;
59938;SDS011;45801;51.810;19.444;2023-11-22T04:34:00;7.80;;;4.00;;
59938;SDS011;45801;51.810;19.444;2023-11-22T04:36:27;8.50;;;4.60;;
59938;SDS011;45801;51.810;19.444;2023-11-22T04:38:54;9.70;;;4.20;;
59938;SDS011;45801;51.810;19.444;2023-11-22T04:41:21;9.70;;;4.20;;
59938;SDS011;45801;51.810;19.444;2023-11-22T04:43:49;9.70;;;4.70;;
59938;SDS011;45801;51.810;19.444;2023-11-22T04:46:15;8.90;;;4.10;;
59938;SDS011;45801;51.810;19.444;2023-11-22T04:48:42;10.10;;;4.30;;
59938;SDS011;45801;51.810;19.444;2023-11-22T04:51:11;11.20;;;4.40;;
59938;SDS011;45801;51.810;19.444;2023-11-22T04:53:38;10.70;;;4.60;;
59938;SDS011;45801;51.810;19.444;2023-11-22T04:56:05;8.80;;;3.60;;
59938;SDS011;45801;51.810;19.444;2023-11-22T04:58:33;7.50;;;3.40;;
59938;SDS011;45801;51.810;19.444;2023-11-22T05:01:00;9.60;;;3.70;;
59938;SDS011;45801;51.810;19.444;2023-11-22T05:03:28;7.90;;;3.60;;
59938;SDS011;45801;51.810;19.444;2023-11-22T05:05:54;7.90;;;3.50;;
59938;SDS011;45801;51.810;19.444;2023-11-22T05:08:22;7.50;;;3.40;;
59938;SDS011;45801;51.810;19.444;2023-11-22T05:10:50;8.70;;;3.60;;
59938;SDS011;45801;51.810;19.444;2023-11-22T05:13:16;9.10;;;3.70;;
59938;SDS011;45801;51.810;19.444;2023-11-22T05:15:43;9.00;;;4.10;;
59938;SDS011;45801;51.810;19.444;2023-11-22T05:18:10;7.70;;;3.60;;
59938;SDS011;45801;51.810;19.444;2023-11-22T05:20:37;9.00;;;4.40;;
59938;SDS011;45801;51.810;19.444;2023-11-22T05:23:03;8.40;;;4.10;;
59938;SDS011;45801;51.810;19.444;2023-11-22T05:25:30;8.30;;;3.70;;
59938;SDS011;45801;51.810;19.444;2023-11-22T05:27:57;8.40;;;3.80;;
59938;SDS011;45801;51.810;19.444;2023-11-22T05:30:25;8.00;;;3.60;;
59938;SDS011;45801;51.810;19.444;2023-11-22T05:32:52;9.10;;;3.60;;
59938;SDS011;45801;51.810;19.444;2023-11-22T05:35:19;8.10;;;3.90;;
59938;SDS011;45801;51.810;19.444;2023-11-22T05:37:46;7.90;;;3.80;;
59938;SDS011;45801;51.810;19.444;2023-11-22T05:40:12;8.40;;;3.90;;
59938;SDS011;45801;51.810;19.444;2023-11-22T05:42:42;8.30;;;3.60;;
59938;SDS011;45801;51.810;19.444;2023-11-22T05:45:09;9.00;;;3.70;;
59938;SDS011;45801;51.810;19.444;2023-11-22T05:47:36;8.30;;;3.30;;
59938;SDS011;45801;51.810;19.444;2023-11-22T05:50:02;9.30;;;4.30;;
59938;SDS011;45801;51.810;19.444;2023-11-22T05:52:30;7.70;;;3.60;;
59938;SDS011;45801;51.810;19.444;2023-11-22T05:54:56;7.60;;;3.20;;
59938;SDS011;45801;51.810;19.444;2023-11-22T05:57:23;7.30;;;3.60;;
59938;SDS011;45801;51.810;19.444;2023-11-22T05:59:50;10.70;;;4.40;;
59938;SDS011;45801;51.810;19.444;2023-11-22T06:02:16;8.40;;;3.90;;
59938;SDS011;45801;51.810;19.444;2023-11-22T06:04:43;9.70;;;4.80;;
59938;SDS011;45801;51.810;19.444;2023-11-22T06:07:10;10.80;;;4.90;;
59938;SDS011;45801;51.810;19.444;2023-11-22T06:09:36;10.60;;;4.70;;
59938;SDS011;45801;51.810;19.444;2023-11-22T06:12:03;9.40;;;4.20;;
59938;SDS011;45801;51.810;19.444;2023-11-22T06:14:30;8.90;;;3.80;;
59938;SDS011;45801;51.810;19.444;2023-11-22T06:16:57;7.80;;;3.40;;
59938;SDS011;45801;51.810;19.444;2023-11-22T06:19:25;7.50;;;3.70;;
59938;SDS011;45801;51.810;19.444;2023-11-22T06:21:51;10.60;;;5.30;;
59938;SDS011;45801;51.810;19.444;2023-11-22T06:24:19;9.40;;;4.60;;
59938;SDS011;45801;51.810;19.444;2023-11-22T06:26:46;9.50;;;4.70;;
59938;SDS011;45801;51.810;19.444;2023-11-22T06:29:13;9.80;;;4.20;;
59938;SDS011;45801;51.810;19.444;2023-11-22T06:31:41;10.90;;;4.70;;
59938;SDS011;45801;51.810;19.444;2023-11-22T06:34:07;12.30;;;5.80;;
59938;SDS011;45801;51.810;19.444;2023-11-22T06:36:34;10.90;;;5.00;;
59938;SDS011;45801;51.810;19.444;2023-11-22T06:39:01;11.70;;;5.60;;
59938;SDS011;45801;51.810;19.444;2023-11-22T06:41:28;12.10;;;5.80;;
59938;SDS011;45801;51.810;19.444;2023-11-22T06:43:55;10.90;;;5.00;;
59938;SDS011;45801;51.810;19.444;2023-11-22T06:46:22;8.40;;;4.10;;
59938;SDS011;45801;51.810;19.444;2023-11-22T06:48:49;9.30;;;4.60;;
59938;SDS011;45801;51.810;19.444;2023-11-22T06:51:16;9.80;;;4.30;;
59938;SDS011;45801;51.810;19.444;2023-11-22T06:53:45;9.70;;;4.40;;
59938;SDS011;45801;51.810;19.444;2023-11-22T06:56:12;9.90;;;3.90;;
59938;SDS011;45801;51.810;19.444;2023-11-22T06:58:39;10.60;;;4.70;;
59938;SDS011;45801;51.810;19.444;2023-11-22T07:01:05;10.90;;;4.50;;
59938;SDS011;45801;51.810;19.444;2023-11-22T07:03:33;9.50;;;4.70;;
59938;SDS011;45801;51.810;19.444;2023-11-22T07:06:00;11.30;;;5.30;;
59938;SDS011;45801;51.810;19.444;2023-11-22T07:08:27;12.20;;;5.20;;
59938;SDS011;45801;51.810;19.444;2023-11-22T07:10:54;11.60;;;5.80;;
59938;SDS011;45801;51.810;19.444;2023-11-22T07:13:23;13.60;;;9.10;;
59938;SDS011;45801;51.810;19.444;2023-11-22T07:15:50;10.40;;;5.50;;
59938;SDS011;45801;51.810;19.444;2023-11-22T07:18:18;11.00;;;5.10;;
59938;SDS011;45801;51.810;19.444;2023-11-22T07:20:44;11.30;;;4.90;;
59938;SDS011;45801;51.810;19.444;2023-11-22T07:23:14;9.40;;;4.80;;
59938;SDS011;45801;51.810;19.444;2023-11-22T07:25:42;9.70;;;4.70;;
59938;SDS011;45801;51.810;19.444;2023-11-22T07:28:08;10.00;;;4.80;;
59938;SDS011;45801;51.810;19.444;2023-11-22T07:30:35;9.20;;;4.60;;
59938;SDS011;45801;51.810;19.444;2023-11-22T07:33:04;8.50;;;4.00;;
59938;SDS011;45801;51.810;19.444;2023-11-22T07:35:32;9.60;;;4.30;;
59938;SDS011;45801;51.810;19.444;2023-11-22T07:37:59;9.10;;;3.90;;
59938;SDS011;45801;51.810;19.444;2023-11-22T07:40:26;8.90;;;4.40;;
59938;SDS011;45801;51.810;19.444;2023-11-22T07:42:53;9.60;;;4.60;;
59938;SDS011;45801;51.810;19.444;2023-11-22T07:45:20;9.80;;;4.10;;
59938;SDS011;45801;51.810;19.444;2023-11-22T07:47:48;9.30;;;4.50;;
59938;SDS011;45801;51.810;19.444;2023-11-22T07:50:15;9.10;;;4.40;;
59938;SDS011;45801;51.810;19.444;2023-11-22T07:52:41;10.40;;;4.60;;
59938;SDS011;45801;51.810;19.444;2023-11-22T07:55:08;9.30;;;5.10;;
59938;SDS011;45801;51.810;19.444;2023-11-22T07:57:37;11.60;;;5.20;;
59938;SDS011;45801;51.810;19.444;2023-11-22T08:00:07;10.70;;;5.40;;
59938;SDS011;45801;51.810;19.444;2023-11-22T08:02:35;13.10;;;5.40;;
59938;SDS011;45801;51.810;19.444;2023-11-22T08:05:05;12.10;;;5.10;;
59938;SDS011;45801;51.810;19.444;2023-11-22T08:07:35;9.50;;;5.00;;
59938;SDS011;45801;51.810;19.444;2023-11-22T08:10:06;10.90;;;5.70;;
59938;SDS011;45801;51.810;19.444;2023-11-22T08:12:44;10.80;;;5.40;;
59938;SDS011;45801;51.810;19.444;2023-11-22T08:15:13;9.70;;;5.00;;
59938;SDS011;45801;51.810;19.444;2023-11-22T08:17:40;10.50;;;5.30;;
59938;SDS011;45801;51.810;19.444;2023-11-22T08:20:08;10.20;;;6.10;;
59938;SDS011;45801;51.810;19.444;2023-11-22T08:22:44;12.60;;;5.80;;
59938;SDS011;45801;51.810;19.444;2023-11-22T08:25:11;13.00;;;5.90;;
59938;SDS011;45801;51.810;19.444;2023-11-22T08:27:39;11.10;;;5.60;;
59938;SDS011;45801;51.810;19.444;2023-11-22T08:30:10;11.50;;;6.20;;
59938;SDS011;45801;51.810;19.444;2023-11-22T08:32:45;12.20;;;6.00;;
59938;SDS011;45801;51.810;19.444;2023-11-22T08:38:05;11.30;;;5.70;;
59938;SDS011;45801;51.810;19.444;2023-11-22T08:40:35;12.30;;;6.00;;
59938;SDS011;45801;51.810;19.444;2023-11-22T08:43:03;11.30;;;5.90;;
59938;SDS011;45801;51.810;19.444;2023-11-22T08:45:30;10.60;;;5.90;;
59938;SDS011;45801;51.810;19.444;2023-11-22T08:47:57;12.10;;;6.50;;
59938;SDS011;45801;51.810;19.444;2023-11-22T08:50:25;11.20;;;5.70;;
59938;SDS011;45801;51.810;19.444;2023-11-22T08:52:51;12.00;;;5.30;;
59938;SDS011;45801;51.810;19.444;2023-11-22T08:55:22;10.70;;;5.80;;
59938;SDS011;45801;51.810;19.444;2023-11-22T08:57:50;13.30;;;5.40;;
59938;SDS011;45801;51.810;19.444;2023-11-22T09:00:17;11.10;;;5.50;;
59938;SDS011;45801;51.810;19.444;2023-11-22T09:02:48;11.40;;;5.90;;
59938;SDS011;45801;51.810;19.444;2023-11-22T09:05:15;9.80;;;5.40;;
59938;SDS011;45801;51.810;19.444;2023-11-22T09:07:43;10.70;;;5.20;;
59938;SDS011;45801;51.810;19.444;2023-11-22T09:10:10;11.00;;;5.20;;
59938;SDS011;45801;51.810;19.444;2023-11-22T09:12:39;10.60;;;5.00;;
59938;SDS011;45801;51.810;19.444;2023-11-22T09:17:38;10.00;;;5.60;;
59938;SDS011;45801;51.810;19.444;2023-11-22T09:20:15;12.90;;;6.50;;
59938;SDS011;45801;51.810;19.444;2023-11-22T09:22:43;12.30;;;6.30;;
59938;SDS011;45801;51.810;19.444;2023-11-22T09:25:22;11.20;;;6.10;;
59938;SDS011;45801;51.810;19.444;2023-11-22T09:27:55;12.30;;;6.10;;
59938;SDS011;45801;51.810;19.444;2023-11-22T09:30:26;12.40;;;6.50;;
59938;SDS011;45801;51.810;19.444;2023-11-22T09:33:06;12.30;;;6.40;;
59938;SDS011;45801;51.810;19.444;2023-11-22T09:35:37;13.40;;;6.30;;
59938;SDS011;45801;51.810;19.444;2023-11-22T09:38:05;13.30;;;7.00;;
59938;SDS011;45801;51.810;19.444;2023-11-22T09:40:43;11.80;;;5.90;;
59938;SDS011;45801;51.810;19.444;2023-11-22T09:43:12;11.80;;;5.90;;
59938;SDS011;45801;51.810;19.444;2023-11-22T09:45:49;12.60;;;5.80;;
59938;SDS011;45801;51.810;19.444;2023-11-22T09:48:17;12.90;;;6.70;;
59938;SDS011;45801;51.810;19.444;2023-11-22T09:53:36;11.20;;;6.10;;
59938;SDS011;45801;51.810;19.444;2023-11-22T09:56:07;13.10;;;6.90;;
59938;SDS011;45801;51.810;19.444;2023-11-22T09:58:37;10.20;;;5.70;;
59938;SDS011;45801;51.810;19.444;2023-11-22T10:01:06;12.80;;;6.50;;
59938;SDS011;45801;51.810;19.444;2023-11-22T10:03:34;12.10;;;6.40;;
59938;SDS011;45801;51.810;19.444;2023-11-22T10:06:00;11.20;;;5.50;;
59938;SDS011;45801;51.810;19.444;2023-11-22T10:08:27;11.20;;;5.60;;
59938;SDS011;45801;51.810;19.444;2023-11-22T10:10:54;12.60;;;6.00;;
59938;SDS011;45801;51.810;19.444;2023-11-22T10:13:21;12.40;;;6.00;;
59938;SDS011;45801;51.810;19.444;2023-11-22T10:15:52;12.10;;;6.00;;
59938;SDS011;45801;51.810;19.444;2023-11-22T10:18:19;11.50;;;6.70;;
59938;SDS011;45801;51.810;19.444;2023-11-22T10:20:48;12.30;;;6.30;;
59938;SDS011;45801;51.810;19.444;2023-11-22T10:23:18;11.80;;;6.40;;
59938;SDS011;45801;51.810;19.444;2023-11-22T10:25:49;12.10;;;6.30;;
59938;SDS011;45801;51.810;19.444;2023-11-22T10:28:19;12.70;;;7.10;;
59938;SDS011;45801;51.810;19.444;2023-11-22T10:30:47;12.40;;;7.00;;
59938;SDS011;45801;51.810;19.444;2023-11-22T10:33:18;11.80;;;5.60;;
59938;SDS011;45801;51.810;19.444;2023-11-22T10:35:49;11.70;;;6.30;;
59938;SDS011;45801;51.810;19.444;2023-11-22T10:38:20;27.00;;;13.50;;
59938;SDS011;45801;51.810;19.444;2023-11-22T10:40:56;47.40;;;24.00;;
59938;SDS011;45801;51.810;19.444;2023-11-22T10:43:24;38.80;;;18.80;;
59938;SDS011;45801;51.810;19.444;2023-11-22T10:45:54;34.20;;;18.20;;
59938;SDS011;45801;51.810;19.444;2023-11-22T10:48:22;16.30;;;7.90;;
59938;SDS011;45801;51.810;19.444;2023-11-22T10:50:49;14.00;;;6.30;;
59938;SDS011;45801;51.810;19.444;2023-11-22T10:53:17;10.70;;;5.50;;
59938;SDS011;45801;51.810;19.444;2023-11-22T10:55:48;11.20;;;6.00;;
59938;SDS011;45801;51.810;19.444;2023-11-22T10:58:19;17.10;;;8.50;;
59938;SDS011;45801;51.810;19.444;2023-11-22T11:00:47;19.30;;;10.70;;
59938;SDS011;45801;51.810;19.444;2023-11-22T11:03:18;24.50;;;14.40;;
59938;SDS011;45801;51.810;19.444;2023-11-22T11:05:49;17.00;;;9.70;;
59938;SDS011;45801;51.810;19.444;2023-11-22T11:08:18;10.50;;;5.60;;
59938;SDS011;45801;51.810;19.444;2023-11-22T11:10:47;11.80;;;5.40;;
59938;SDS011;45801;51.810;19.444;2023-11-22T11:13:16;11.10;;;5.30;;
59938;SDS011;45801;51.810;19.444;2023-11-22T11:15:44;10.60;;;4.70;;
59938;SDS011;45801;51.810;19.444;2023-11-22T11:18:15;9.80;;;4.60;;
59938;SDS011;45801;51.810;19.444;2023-11-22T11:20:50;11.30;;;4.90;;
59938;SDS011;45801;51.810;19.444;2023-11-22T11:23:26;10.90;;;5.40;;
59938;SDS011;45801;51.810;19.444;2023-11-22T11:25:54;12.10;;;6.50;;
59938;SDS011;45801;51.810;19.444;2023-11-22T11:28:23;12.50;;;6.30;;
59938;SDS011;45801;51.810;19.444;2023-11-22T11:30:53;40.70;;;18.90;;
59938;SDS011;45801;51.810;19.444;2023-11-22T11:33:27;28.50;;;14.10;;
59938;SDS011;45801;51.810;19.444;2023-11-22T11:36:00;12.20;;;6.40;;
59938;SDS011;45801;51.810;19.444;2023-11-22T11:38:31;13.30;;;7.90;;
59938;SDS011;45801;51.810;19.444;2023-11-22T11:41:10;12.10;;;6.00;;
59938;SDS011;45801;51.810;19.444;2023-11-22T11:46:20;10.60;;;5.00;;
59938;SDS011;45801;51.810;19.444;2023-11-22T11:48:50;10.90;;;5.10;;
59938;SDS011;45801;51.810;19.444;2023-11-22T11:51:18;12.00;;;5.40;;
59938;SDS011;45801;51.810;19.444;2023-11-22T11:53:49;11.60;;;7.30;;
59938;SDS011;45801;51.810;19.444;2023-11-22T11:56:16;11.60;;;5.70;;
59938;SDS011;45801;51.810;19.444;2023-11-22T11:58:46;11.60;;;6.00;;
59938;SDS011;45801;51.810;19.444;2023-11-22T12:01:14;9.90;;;4.70;;
59938;SDS011;45801;51.810;19.444;2023-11-22T12:03:49;11.70;;;5.50;;
59938;SDS011;45801;51.810;19.444;2023-11-22T12:06:18;11.60;;;5.60;;
59938;SDS011;45801;51.810;19.444;2023-11-22T12:08:46;12.50;;;5.50;;
59938;SDS011;45801;51.810;19.444;2023-11-22T12:11:14;11.70;;;5.80;;
59938;SDS011;45801;51.810;19.444;2023-11-22T12:13:42;13.10;;;6.00;;
59938;SDS011;45801;51.810;19.444;2023-11-22T12:16:17;10.40;;;5.20;;
59938;SDS011;45801;51.810;19.444;2023-11-22T12:18:45;10.00;;;5.20;;
59938;SDS011;45801;51.810;19.444;2023-11-22T12:21:14;11.70;;;5.80;;
59938;SDS011;45801;51.810;19.444;2023-11-22T12:23:42;10.70;;;5.20;;
59938;SDS011;45801;51.810;19.444;2023-11-22T12:26:12;10.20;;;5.70;;
59938;SDS011;45801;51.810;19.444;2023-11-22T12:28:41;10.80;;;5.40;;
59938;SDS011;45801;51.810;19.444;2023-11-22T12:31:12;11.40;;;5.10;;
59938;SDS011;45801;51.810;19.444;2023-11-22T12:33:40;10.40;;;5.70;;
59938;SDS011;45801;51.810;19.444;2023-11-22T12:36:09;11.20;;;5.00;;
59938;SDS011;45801;51.810;19.444;2023-11-22T12:38:37;11.20;;;5.60;;
59938;SDS011;45801;51.810;19.444;2023-11-22T12:41:05;10.50;;;6.00;;
59938;SDS011;45801;51.810;19.444;2023-11-22T12:43:33;10.90;;;5.30;;
59938;SDS011;45801;51.810;19.444;2023-11-22T12:46:01;9.30;;;5.60;;
59938;SDS011;45801;51.810;19.444;2023-11-22T12:48:30;10.00;;;4.90;;
59938;SDS011;45801;51.810;19.444;2023-11-22T12:50:57;9.20;;;4.40;;
59938;SDS011;45801;51.810;19.444;2023-11-22T12:53:25;11.10;;;5.10;;
59938;SDS011;45801;51.810;19.444;2023-11-22T12:55:54;10.50;;;4.80;;
59938;SDS011;45801;51.810;19.444;2023-11-22T12:58:22;9.40;;;4.70;;
59938;SDS011;45801;51.810;19.444;2023-11-22T13:00:51;11.50;;;5.90;;
59938;SDS011;45801;51.810;19.444;2023-11-22T13:03:29;10.20;;;4.80;;
59938;SDS011;45801;51.810;19.444;2023-11-22T13:05:56;11.30;;;5.20;;
59938;SDS011;45801;51.810;19.444;2023-11-22T13:08:23;10.70;;;5.00;;
59938;SDS011;45801;51.810;19.444;2023-11-22T13:10:56;10.90;;;5.00;;
59938;SDS011;45801;51.810;19.444;2023-11-22T13:13:24;10.90;;;4.70;;
59938;SDS011;45801;51.810;19.444;2023-11-22T13:15:51;10.30;;;4.90;;
59938;SDS011;45801;51.810;19.444;2023-11-22T13:18:18;9.70;;;5.20;;
59938;SDS011;45801;51.810;19.444;2023-11-22T13:20:46;11.70;;;6.70;;
59938;SDS011;45801;51.810;19.444;2023-11-22T13:23:12;11.40;;;5.40;;
59938;SDS011;45801;51.810;19.444;2023-11-22T13:25:40;11.70;;;5.20;;
59938;SDS011;45801;51.810;19.444;2023-11-22T13:28:10;12.00;;;6.30;;
59938;SDS011;45801;51.810;19.444;2023-11-22T13:30:37;13.60;;;6.40;;
59938;SDS011;45801;51.810;19.444;2023-11-22T13:33:04;10.40;;;5.60;;
59938;SDS011;45801;51.810;19.444;2023-11-22T13:35:32;10.40;;;4.80;;
59938;SDS011;45801;51.810;19.444;2023-11-22T13:38:04;10.30;;;5.00;;
59938;SDS011;45801;51.810;19.444;2023-11-22T13:40:37;9.10;;;4.80;;
59938;SDS011;45801;51.810;19.444;2023-11-22T13:43:06;13.30;;;5.70;;
59938;SDS011;45801;51.810;19.444;2023-11-22T13:45:36;13.50;;;5.70;;
59938;SDS011;45801;51.810;19.444;2023-11-22T13:48:22;11.50;;;6.10;;
59938;SDS011;45801;51.810;19.444;2023-11-22T13:50:50;11.80;;;5.60;;
59938;SDS011;45801;51.810;19.444;2023-11-22T13:53:16;10.90;;;5.20;;
59938;SDS011;45801;51.810;19.444;2023-11-22T13:55:48;10.90;;;5.20;;
59938;SDS011;45801;51.810;19.444;2023-11-22T13:58:17;12.00;;;5.50;;
59938;SDS011;45801;51.810;19.444;2023-11-22T14:00:43;10.70;;;5.80;;
59938;SDS011;45801;51.810;19.444;2023-11-22T14:03:14;13.30;;;6.50;;
59938;SDS011;45801;51.810;19.444;2023-11-22T14:05:40;11.90;;;5.90;;
59938;SDS011;45801;51.810;19.444;2023-11-22T14:08:07;12.10;;;6.20;;
59938;SDS011;45801;51.810;19.444;2023-11-22T14:10:34;16.70;;;7.60;;
59938;SDS011;45801;51.810;19.444;2023-11-22T14:13:00;14.90;;;7.90;;
59938;SDS011;45801;51.810;19.444;2023-11-22T14:15:29;13.40;;;6.80;;
59938;SDS011;45801;51.810;19.444;2023-11-22T14:17:55;14.80;;;7.00;;
59938;SDS011;45801;51.810;19.444;2023-11-22T14:20:22;15.30;;;7.10;;
59938;SDS011;45801;51.810;19.444;2023-11-22T14:22:50;19.10;;;7.10;;
59938;SDS011;45801;51.810;19.444;2023-11-22T14:25:17;14.00;;;5.80;;
59938;SDS011;45801;51.810;19.444;2023-11-22T14:27:44;11.60;;;5.40;;
59938;SDS011;45801;51.810;19.444;2023-11-22T14:30:12;14.00;;;6.90;;
59938;SDS011;45801;51.810;19.444;2023-11-22T14:32:42;13.00;;;7.00;;
59938;SDS011;45801;51.810;19.444;2023-11-22T14:35:10;12.70;;;6.90;;
59938;SDS011;45801;51.810;19.444;2023-11-22T14:37:37;15.40;;;8.10;;
59938;SDS011;45801;51.810;19.444;2023-11-22T14:40:06;16.00;;;7.30;;